Nearby METAR Reports

 

NZCH - Christchurch Int, New Zealand
Distance from station: W 10km
Updated: 20 Apr 2018 05:00
Clear
Clear
 Wind from E
Wind: E 11 km/h
Temperature: 11°C
Dew Point: 4°C
Humidity: 62%
Barometer: 1003 hPa
Clouds: Clear
Visibility: 10 km
2018/04/19 17:00 NZCH 191700Z AUTO 09006KT 9999 NCD 11/04 Q1003 NOSIG